sensor_id;sensor_type;location;lat;lon;timestamp;pressure;altitude;pressure_sealevel;temperature;humidity
66479;BME280;53294;47.912;13.526;2024-01-06T00:01:05;94904.19;;;3.29;71.92
66479;BME280;53294;47.912;13.526;2024-01-06T00:03:36;94895.41;;;3.34;71.08
66479;BME280;53294;47.912;13.526;2024-01-06T00:06:03;94891.50;;;3.26;71.14
66479;BME280;53294;47.912;13.526;2024-01-06T00:08:30;94882.63;;;2.77;73.20
66479;BME280;53294;47.912;13.526;2024-01-06T00:10:57;94879.31;;;2.56;74.10
66479;BME280;53294;47.912;13.526;2024-01-06T00:13:24;94891.13;;;2.74;73.83
66479;BME280;53294;47.912;13.526;2024-01-06T00:15:50;94899.19;;;2.93;73.39
66479;BME280;53294;47.912;13.526;2024-01-06T00:18:17;94896.28;;;2.95;72.99
66479;BME280;53294;47.912;13.526;2024-01-06T00:20:44;94911.47;;;2.84;73.72
66479;BME280;53294;47.912;13.526;2024-01-06T00:23:11;94915.44;;;2.86;73.46
66479;BME280;53294;47.912;13.526;2024-01-06T00:25:37;94915.16;;;2.88;73.70
66479;BME280;53294;47.912;13.526;2024-01-06T00:28:04;94907.44;;;2.92;74.12
66479;BME280;53294;47.912;13.526;2024-01-06T00:30:31;94910.84;;;2.97;74.25
66479;BME280;53294;47.912;13.526;2024-01-06T00:32:58;94906.00;;;3.04;73.39
66479;BME280;53294;47.912;13.526;2024-01-06T00:35:24;94905.38;;;3.18;73.21
66479;BME280;53294;47.912;13.526;2024-01-06T00:37:51;94903.91;;;3.31;72.48
66479;BME280;53294;47.912;13.526;2024-01-06T00:40:18;94904.13;;;3.39;72.09
66479;BME280;53294;47.912;13.526;2024-01-06T00:42:46;94892.88;;;3.48;71.72
66479;BME280;53294;47.912;13.526;2024-01-06T00:45:13;94897.88;;;3.54;71.51
66479;BME280;53294;47.912;13.526;2024-01-06T00:47:39;94897.03;;;3.59;71.19
66479;BME280;53294;47.912;13.526;2024-01-06T00:50:06;94906.81;;;3.64;70.81
66479;BME280;53294;47.912;13.526;2024-01-06T00:52:33;94910.75;;;3.66;70.30
66479;BME280;53294;47.912;13.526;2024-01-06T00:55:00;94902.22;;;3.69;69.96
66479;BME280;53294;47.912;13.526;2024-01-06T00:57:27;94919.69;;;3.75;69.75
66479;BME280;53294;47.912;13.526;2024-01-06T00:59:53;94918.72;;;3.66;69.79
66479;BME280;53294;47.912;13.526;2024-01-06T01:02:20;94922.38;;;3.46;70.48
66479;BME280;53294;47.912;13.526;2024-01-06T01:04:47;94926.41;;;3.38;71.17
66479;BME280;53294;47.912;13.526;2024-01-06T01:07:13;94919.56;;;3.32;72.45
66479;BME280;53294;47.912;13.526;2024-01-06T01:09:40;94923.75;;;3.38;71.92
66479;BME280;53294;47.912;13.526;2024-01-06T01:12:07;94920.00;;;3.45;71.81
66479;BME280;53294;47.912;13.526;2024-01-06T01:14:33;94923.13;;;3.52;71.88
66479;BME280;53294;47.912;13.526;2024-01-06T01:17:00;94924.09;;;3.61;71.12
66479;BME280;53294;47.912;13.526;2024-01-06T01:19:27;94929.88;;;3.68;70.46
66479;BME280;53294;47.912;13.526;2024-01-06T01:21:54;94930.09;;;3.72;70.52
66479;BME280;53294;47.912;13.526;2024-01-06T01:24:22;94925.56;;;3.72;70.33
66479;BME280;53294;47.912;13.526;2024-01-06T01:26:49;94922.84;;;3.77;69.82
66479;BME280;53294;47.912;13.526;2024-01-06T01:29:16;94919.91;;;3.79;70.11
66479;BME280;53294;47.912;13.526;2024-01-06T01:31:43;94919.34;;;3.82;70.23
66479;BME280;53294;47.912;13.526;2024-01-06T01:34:10;94917.25;;;3.79;70.03
66479;BME280;53294;47.912;13.526;2024-01-06T01:36:37;94920.72;;;3.80;69.69
66479;BME280;53294;47.912;13.526;2024-01-06T01:39:05;94922.34;;;3.75;70.05
66479;BME280;53294;47.912;13.526;2024-01-06T01:41:32;94917.84;;;3.76;70.45
66479;BME280;53294;47.912;13.526;2024-01-06T01:43:58;94920.72;;;3.80;70.44
66479;BME280;53294;47.912;13.526;2024-01-06T01:46:29;94913.25;;;3.82;70.25
66479;BME280;53294;47.912;13.526;2024-01-06T01:48:58;94920.94;;;3.83;69.88
66479;BME280;53294;47.912;13.526;2024-01-06T01:51:30;94915.84;;;3.87;69.41
66479;BME280;53294;47.912;13.526;2024-01-06T01:53:58;94912.38;;;3.86;69.05
66479;BME280;53294;47.912;13.526;2024-01-06T01:56:25;94913.69;;;3.89;69.05
66479;BME280;53294;47.912;13.526;2024-01-06T01:58:53;94916.84;;;3.91;68.88
66479;BME280;53294;47.912;13.526;2024-01-06T02:01:20;94915.25;;;3.90;69.22
66479;BME280;53294;47.912;13.526;2024-01-06T02:03:47;94912.09;;;3.88;69.23
66479;BME280;53294;47.912;13.526;2024-01-06T02:06:13;94902.75;;;3.71;70.05
66479;BME280;53294;47.912;13.526;2024-01-06T02:08:40;94907.03;;;3.67;70.99
66479;BME280;53294;47.912;13.526;2024-01-06T02:11:07;94904.09;;;3.69;71.22
66479;BME280;53294;47.912;13.526;2024-01-06T02:13:34;94904.31;;;3.72;71.02
66479;BME280;53294;47.912;13.526;2024-01-06T02:16:05;94901.59;;;3.77;70.79
66479;BME280;53294;47.912;13.526;2024-01-06T02:18:32;94899.47;;;3.80;70.56
66479;BME280;53294;47.912;13.526;2024-01-06T02:21:01;94897.09;;;3.78;70.82
66479;BME280;53294;47.912;13.526;2024-01-06T02:23:28;94885.66;;;3.77;71.09
66479;BME280;53294;47.912;13.526;2024-01-06T02:25:55;94887.59;;;3.72;70.97
66479;BME280;53294;47.912;13.526;2024-01-06T02:28:22;94890.03;;;3.68;71.39
66479;BME280;53294;47.912;13.526;2024-01-06T02:30:49;94880.81;;;3.61;71.40
66479;BME280;53294;47.912;13.526;2024-01-06T02:33:16;94876.78;;;3.63;71.17
66479;BME280;53294;47.912;13.526;2024-01-06T02:35:46;94871.53;;;3.58;70.65
66479;BME280;53294;47.912;13.526;2024-01-06T02:38:13;94878.47;;;3.54;70.98
66479;BME280;53294;47.912;13.526;2024-01-06T02:40:39;94878.94;;;3.61;70.79
66479;BME280;53294;47.912;13.526;2024-01-06T02:43:06;94874.13;;;3.63;70.79
66479;BME280;53294;47.912;13.526;2024-01-06T02:45:33;94867.81;;;3.59;70.69
66479;BME280;53294;47.912;13.526;2024-01-06T02:48:00;94859.88;;;3.54;71.15
66479;BME280;53294;47.912;13.526;2024-01-06T02:50:27;94854.53;;;3.59;71.24
66479;BME280;53294;47.912;13.526;2024-01-06T02:52:53;94858.19;;;3.63;71.53
66479;BME280;53294;47.912;13.526;2024-01-06T02:55:21;94863.06;;;3.56;71.71
66479;BME280;53294;47.912;13.526;2024-01-06T02:57:47;94854.00;;;3.57;71.29
66479;BME280;53294;47.912;13.526;2024-01-06T03:00:15;94859.44;;;3.47;71.08
66479;BME280;53294;47.912;13.526;2024-01-06T03:02:41;94862.94;;;3.42;71.19
66479;BME280;53294;47.912;13.526;2024-01-06T03:05:09;94856.56;;;3.43;71.30
66479;BME280;53294;47.912;13.526;2024-01-06T03:07:36;94858.50;;;3.37;71.53
66479;BME280;53294;47.912;13.526;2024-01-06T03:10:03;94861.56;;;3.45;71.72
66479;BME280;53294;47.912;13.526;2024-01-06T03:12:29;94858.88;;;3.50;71.80
66479;BME280;53294;47.912;13.526;2024-01-06T03:14:56;94862.94;;;3.66;71.64
66479;BME280;53294;47.912;13.526;2024-01-06T03:17:23;94868.78;;;3.68;71.60
66479;BME280;53294;47.912;13.526;2024-01-06T03:19:49;94860.00;;;3.68;71.41
66479;BME280;53294;47.912;13.526;2024-01-06T03:22:16;94862.91;;;3.71;71.27
66479;BME280;53294;47.912;13.526;2024-01-06T03:24:43;94859.63;;;3.80;71.41
66479;BME280;53294;47.912;13.526;2024-01-06T03:27:10;94862.69;;;3.87;71.61
66479;BME280;53294;47.912;13.526;2024-01-06T03:29:37;94864.50;;;3.91;71.52
66479;BME280;53294;47.912;13.526;2024-01-06T03:32:04;94858.06;;;3.98;70.72
66479;BME280;53294;47.912;13.526;2024-01-06T03:34:30;94851.88;;;4.02;70.58
66479;BME280;53294;47.912;13.526;2024-01-06T03:36:57;94853.41;;;4.08;70.53
66479;BME280;53294;47.912;13.526;2024-01-06T03:39:24;94860.50;;;4.13;70.90
66479;BME280;53294;47.912;13.526;2024-01-06T03:41:51;94853.84;;;4.16;71.22
66479;BME280;53294;47.912;13.526;2024-01-06T03:44:17;94855.19;;;4.13;71.66
66479;BME280;53294;47.912;13.526;2024-01-06T03:46:44;94853.41;;;4.08;71.62
66479;BME280;53294;47.912;13.526;2024-01-06T03:49:11;94853.97;;;4.05;71.61
66479;BME280;53294;47.912;13.526;2024-01-06T03:51:37;94852.97;;;4.01;71.74
66479;BME280;53294;47.912;13.526;2024-01-06T03:54:04;94860.88;;;4.06;71.17
66479;BME280;53294;47.912;13.526;2024-01-06T03:56:31;94864.88;;;4.04;71.24
66479;BME280;53294;47.912;13.526;2024-01-06T03:58:58;94865.53;;;3.95;71.79
66479;BME280;53294;47.912;13.526;2024-01-06T04:01:24;94865.34;;;3.87;71.87
66479;BME280;53294;47.912;13.526;2024-01-06T04:03:51;94867.66;;;3.74;72.10
66479;BME280;53294;47.912;13.526;2024-01-06T04:06:18;94874.03;;;3.73;72.32
66479;BME280;53294;47.912;13.526;2024-01-06T04:08:45;94872.22;;;3.69;72.42
66479;BME280;53294;47.912;13.526;2024-01-06T04:11:11;94876.69;;;3.73;72.22
66479;BME280;53294;47.912;13.526;2024-01-06T04:13:38;94878.72;;;3.57;73.05
66479;BME280;53294;47.912;13.526;2024-01-06T04:16:05;94883.97;;;3.63;72.86
66479;BME280;53294;47.912;13.526;2024-01-06T04:18:31;94886.91;;;3.61;73.08
66479;BME280;53294;47.912;13.526;2024-01-06T04:20:58;94888.94;;;3.69;72.84
66479;BME280;53294;47.912;13.526;2024-01-06T04:23:25;94888.84;;;3.80;73.24
66479;BME280;53294;47.912;13.526;2024-01-06T04:25:52;94892.00;;;3.82;73.81
66479;BME280;53294;47.912;13.526;2024-01-06T04:28:19;94881.38;;;3.82;73.82
66479;BME280;53294;47.912;13.526;2024-01-06T04:30:46;94900.25;;;3.80;73.83
66479;BME280;53294;47.912;13.526;2024-01-06T04:33:12;94895.94;;;3.84;73.94
66479;BME280;53294;47.912;13.526;2024-01-06T04:35:39;94905.78;;;3.84;74.19
66479;BME280;53294;47.912;13.526;2024-01-06T04:38:06;94899.88;;;3.87;74.08
66479;BME280;53294;47.912;13.526;2024-01-06T04:40:33;94909.44;;;3.88;74.74
66479;BME280;53294;47.912;13.526;2024-01-06T04:42:59;94911.53;;;3.91;74.63
66479;BME280;53294;47.912;13.526;2024-01-06T04:45:26;94917.63;;;3.91;75.20
66479;BME280;53294;47.912;13.526;2024-01-06T04:47:53;94925.41;;;3.88;75.25
66479;BME280;53294;47.912;13.526;2024-01-06T04:50:20;94923.88;;;3.82;76.31
66479;BME280;53294;47.912;13.526;2024-01-06T04:52:46;94923.88;;;3.82;76.50
66479;BME280;53294;47.912;13.526;2024-01-06T04:55:13;94929.19;;;3.82;76.96
66479;BME280;53294;47.912;13.526;2024-01-06T04:57:40;94937.66;;;3.84;77.08
66479;BME280;53294;47.912;13.526;2024-01-06T05:00:07;94927.59;;;3.81;77.65
66479;BME280;53294;47.912;13.526;2024-01-06T05:02:34;94939.81;;;3.82;77.91
66479;BME280;53294;47.912;13.526;2024-01-06T05:05:00;94942.47;;;3.82;78.58
66479;BME280;53294;47.912;13.526;2024-01-06T05:07:27;94942.75;;;3.80;78.82
66479;BME280;53294;47.912;13.526;2024-01-06T05:09:54;94942.25;;;3.78;79.35
66479;BME280;53294;47.912;13.526;2024-01-06T05:12:21;94939.03;;;3.81;79.74
66479;BME280;53294;47.912;13.526;2024-01-06T05:14:48;94948.56;;;3.82;79.35
66479;BME280;53294;47.912;13.526;2024-01-06T05:17:14;94946.16;;;3.86;79.40
66479;BME280;53294;47.912;13.526;2024-01-06T05:19:41;94946.16;;;3.86;79.80
66479;BME280;53294;47.912;13.526;2024-01-06T05:22:08;94954.44;;;3.79;80.05
66479;BME280;53294;47.912;13.526;2024-01-06T05:24:34;94955.03;;;3.76;80.12
66479;BME280;53294;47.912;13.526;2024-01-06T05:27:01;94963.50;;;3.78;80.79
66479;BME280;53294;47.912;13.526;2024-01-06T05:29:28;94977.56;;;3.78;81.48
66479;BME280;53294;47.912;13.526;2024-01-06T05:31:54;94967.00;;;3.73;81.79
66479;BME280;53294;47.912;13.526;2024-01-06T05:34:21;94978.69;;;3.72;81.64
66479;BME280;53294;47.912;13.526;2024-01-06T05:36:48;94979.22;;;3.74;82.26
66479;BME280;53294;47.912;13.526;2024-01-06T05:39:15;94978.94;;;3.76;82.54
66479;BME280;53294;47.912;13.526;2024-01-06T05:41:42;94981.81;;;3.80;82.57
66479;BME280;53294;47.912;13.526;2024-01-06T05:44:08;94986.28;;;3.84;82.39
66479;BME280;53294;47.912;13.526;2024-01-06T05:46:35;94984.88;;;3.92;82.51
66479;BME280;53294;47.912;13.526;2024-01-06T05:49:02;94985.59;;;3.98;82.25
66479;BME280;53294;47.912;13.526;2024-01-06T05:51:29;94994.38;;;3.98;82.60
66479;BME280;53294;47.912;13.526;2024-01-06T05:53:56;94992.28;;;3.95;82.73
66479;BME280;53294;47.912;13.526;2024-01-06T05:56:23;95009.22;;;3.99;82.76
66479;BME280;53294;47.912;13.526;2024-01-06T05:58:52;95003.34;;;4.02;82.60
66479;BME280;53294;47.912;13.526;2024-01-06T06:01:20;95012.44;;;3.96;82.97
66479;BME280;53294;47.912;13.526;2024-01-06T06:03:50;95010.59;;;3.97;83.35
66479;BME280;53294;47.912;13.526;2024-01-06T06:06:18;95009.00;;;3.95;83.48
66479;BME280;53294;47.912;13.526;2024-01-06T06:08:45;95019.84;;;3.99;83.71
66479;BME280;53294;47.912;13.526;2024-01-06T06:11:12;95020.38;;;4.01;83.88
66479;BME280;53294;47.912;13.526;2024-01-06T06:13:42;95019.28;;;4.02;84.04
66479;BME280;53294;47.912;13.526;2024-01-06T06:16:10;95029.34;;;4.05;84.03
66479;BME280;53294;47.912;13.526;2024-01-06T06:18:39;95032.53;;;4.07;83.45
66479;BME280;53294;47.912;13.526;2024-01-06T06:21:06;95032.03;;;4.05;84.13
66479;BME280;53294;47.912;13.526;2024-01-06T06:23:34;95032.53;;;4.07;83.77
66479;BME280;53294;47.912;13.526;2024-01-06T06:26:05;95037.88;;;4.07;83.97
66479;BME280;53294;47.912;13.526;2024-01-06T06:28:33;95040.09;;;3.66;83.99
66479;BME280;53294;47.912;13.526;2024-01-06T06:31:01;95046.31;;;3.51;84.69
66479;BME280;53294;47.912;13.526;2024-01-06T06:33:28;95043.91;;;3.54;84.29
66479;BME280;53294;47.912;13.526;2024-01-06T06:35:56;95055.03;;;3.56;84.35
66479;BME280;53294;47.912;13.526;2024-01-06T06:38:25;95062.13;;;3.66;84.00
66479;BME280;53294;47.912;13.526;2024-01-06T06:40:53;95060.75;;;3.74;85.18
66479;BME280;53294;47.912;13.526;2024-01-06T06:43:19;95065.88;;;3.65;84.99
66479;BME280;53294;47.912;13.526;2024-01-06T06:45:46;95065.53;;;3.72;84.61
66479;BME280;53294;47.912;13.526;2024-01-06T06:48:13;95072.19;;;3.74;83.97
66479;BME280;53294;47.912;13.526;2024-01-06T06:50:40;95072.41;;;3.78;84.04
66479;BME280;53294;47.912;13.526;2024-01-06T06:53:08;95064.38;;;3.83;83.46
66479;BME280;53294;47.912;13.526;2024-01-06T06:55:35;95075.78;;;3.89;83.33
66479;BME280;53294;47.912;13.526;2024-01-06T06:58:04;95078.44;;;3.89;83.70
66479;BME280;53294;47.912;13.526;2024-01-06T07:00:32;95078.44;;;3.89;84.48
66479;BME280;53294;47.912;13.526;2024-01-06T07:02:59;95081.03;;;3.94;84.26
66479;BME280;53294;47.912;13.526;2024-01-06T07:05:26;95085.84;;;3.87;84.25
66479;BME280;53294;47.912;13.526;2024-01-06T07:07:53;95092.84;;;3.77;83.66
66479;BME280;53294;47.912;13.526;2024-01-06T07:10:20;95095.22;;;3.79;83.22
66479;BME280;53294;47.912;13.526;2024-01-06T07:12:47;95101.97;;;3.66;83.89
66479;BME280;53294;47.912;13.526;2024-01-06T07:15:14;95103.88;;;3.61;84.28
66479;BME280;53294;47.912;13.526;2024-01-06T07:17:41;95112.19;;;3.49;84.31
66479;BME280;53294;47.912;13.526;2024-01-06T07:20:08;95110.31;;;3.49;85.08
66479;BME280;53294;47.912;13.526;2024-01-06T07:22:35;95110.59;;;3.48;85.71
66479;BME280;53294;47.912;13.526;2024-01-06T07:25:02;95112.13;;;3.59;85.94
66479;BME280;53294;47.912;13.526;2024-01-06T07:27:29;95113.13;;;3.68;86.14
66479;BME280;53294;47.912;13.526;2024-01-06T07:29:55;95121.06;;;3.73;85.33
66479;BME280;53294;47.912;13.526;2024-01-06T07:32:22;95117.84;;;3.76;85.45
66479;BME280;53294;47.912;13.526;2024-01-06T07:34:49;95127.34;;;3.83;85.39
66479;BME280;53294;47.912;13.526;2024-01-06T07:37:16;95128.66;;;3.85;85.16
66479;BME280;53294;47.912;13.526;2024-01-06T07:39:43;95131.00;;;3.92;85.22
66479;BME280;53294;47.912;13.526;2024-01-06T07:42:10;95130.69;;;3.99;85.10
66479;BME280;53294;47.912;13.526;2024-01-06T07:44:36;95137.53;;;4.05;84.75
66479;BME280;53294;47.912;13.526;2024-01-06T07:47:03;95136.19;;;4.07;84.68
66479;BME280;53294;47.912;13.526;2024-01-06T07:49:31;95132.16;;;4.10;84.97
66479;BME280;53294;47.912;13.526;2024-01-06T07:51:58;95141.47;;;4.12;84.80
66479;BME280;53294;47.912;13.526;2024-01-06T07:54:26;95146.22;;;4.16;84.80
66479;BME280;53294;47.912;13.526;2024-01-06T07:56:53;95145.16;;;4.17;83.95
66479;BME280;53294;47.912;13.526;2024-01-06T07:59:20;95141.03;;;4.00;84.01
66479;BME280;53294;47.912;13.526;2024-01-06T08:01:47;95149.06;;;3.90;84.38
66479;BME280;53294;47.912;13.526;2024-01-06T08:04:13;95143.19;;;3.93;84.37
66479;BME280;53294;47.912;13.526;2024-01-06T08:06:41;95143.97;;;3.99;84.64
66479;BME280;53294;47.912;13.526;2024-01-06T08:09:07;95153.53;;;4.00;84.63
66479;BME280;53294;47.912;13.526;2024-01-06T08:11:34;95159.69;;;3.95;84.59
66479;BME280;53294;47.912;13.526;2024-01-06T08:14:01;95157.03;;;3.95;84.39
66479;BME280;53294;47.912;13.526;2024-01-06T08:16:28;95162.88;;;3.92;84.52
66479;BME280;53294;47.912;13.526;2024-01-06T08:18:55;95163.03;;;3.71;85.12
66479;BME280;53294;47.912;13.526;2024-01-06T08:21:22;95164.00;;;3.81;85.87
66479;BME280;53294;47.912;13.526;2024-01-06T08:23:49;95162.91;;;3.87;86.28
66479;BME280;53294;47.912;13.526;2024-01-06T08:26:16;95167.94;;;3.88;85.26
66479;BME280;53294;47.912;13.526;2024-01-06T08:28:44;95166.59;;;3.91;85.19
66479;BME280;53294;47.912;13.526;2024-01-06T08:31:11;95168.75;;;3.89;84.68
66479;BME280;53294;47.912;13.526;2024-01-06T08:33:37;95178.28;;;3.90;84.64
66479;BME280;53294;47.912;13.526;2024-01-06T08:36:05;95181.28;;;3.83;84.12
66479;BME280;53294;47.912;13.526;2024-01-06T08:38:32;95182.59;;;3.81;84.25
66479;BME280;53294;47.912;13.526;2024-01-06T08:40:59;95193.03;;;3.72;84.58
66479;BME280;53294;47.912;13.526;2024-01-06T08:43:25;95193.25;;;3.81;84.80
66479;BME280;53294;47.912;13.526;2024-01-06T08:45:52;95196.09;;;3.89;84.89
66479;BME280;53294;47.912;13.526;2024-01-06T08:48:19;95198.97;;;3.98;84.88
66479;BME280;53294;47.912;13.526;2024-01-06T08:50:46;95201.38;;;4.00;84.28
66479;BME280;53294;47.912;13.526;2024-01-06T08:53:13;95203.16;;;3.65;84.31
66479;BME280;53294;47.912;13.526;2024-01-06T08:55:40;95214.31;;;3.12;87.22
66479;BME280;53294;47.912;13.526;2024-01-06T08:58:10;95220.69;;;3.05;88.46
66479;BME280;53294;47.912;13.526;2024-01-06T09:00:37;95221.53;;;2.91;89.57
66479;BME280;53294;47.912;13.526;2024-01-06T09:03:04;95220.66;;;3.11;88.48
66479;BME280;53294;47.912;13.526;2024-01-06T09:05:31;95222.19;;;3.32;87.68
66479;BME280;53294;47.912;13.526;2024-01-06T09:07:58;95225.84;;;3.47;87.52
66479;BME280;53294;47.912;13.526;2024-01-06T09:10:24;95220.19;;;3.58;86.40
66479;BME280;53294;47.912;13.526;2024-01-06T09:12:51;95222.38;;;3.46;87.22
66479;BME280;53294;47.912;13.526;2024-01-06T09:15:18;95219.44;;;3.48;86.52
66479;BME280;53294;47.912;13.526;2024-01-06T09:17:44;95225.31;;;3.50;86.51
66479;BME280;53294;47.912;13.526;2024-01-06T09:20:11;95222.84;;;3.58;85.58
66479;BME280;53294;47.912;13.526;2024-01-06T09:22:38;95221.84;;;3.49;86.33
66479;BME280;53294;47.912;13.526;2024-01-06T09:25:05;95228.16;;;3.58;86.46
66479;BME280;53294;47.912;13.526;2024-01-06T09:27:32;95233.06;;;3.36;87.00
66479;BME280;53294;47.912;13.526;2024-01-06T09:29:59;95229.66;;;3.20;88.25
66479;BME280;53294;47.912;13.526;2024-01-06T09:32:26;95232.97;;;2.86;89.25
66479;BME280;53294;47.912;13.526;2024-01-06T09:34:52;95236.16;;;2.83;90.27
66479;BME280;53294;47.912;13.526;2024-01-06T09:37:19;95239.56;;;2.99;90.71
66479;BME280;53294;47.912;13.526;2024-01-06T09:39:46;95240.88;;;2.96;90.73
66479;BME280;53294;47.912;13.526;2024-01-06T09:42:13;95235.50;;;3.17;88.95
66479;BME280;53294;47.912;13.526;2024-01-06T09:44:40;95233.38;;;3.24;88.02
66479;BME280;53294;47.912;13.526;2024-01-06T09:47:10;95227.47;;;3.32;86.84
66479;BME280;53294;47.912;13.526;2024-01-06T09:49:38;95225.31;;;3.50;84.87
66479;BME280;53294;47.912;13.526;2024-01-06T09:52:13;95218.81;;;3.71;84.76
66479;BME280;53294;47.912;13.526;2024-01-06T09:54:51;95215.50;;;3.90;83.51
66479;BME280;53294;47.912;13.526;2024-01-06T09:57:18;95211.72;;;4.01;82.09
66479;BME280;53294;47.912;13.526;2024-01-06T09:59:44;95216.16;;;4.11;81.96
66479;BME280;53294;47.912;13.526;2024-01-06T10:02:15;95222.91;;;3.93;82.25
66479;BME280;53294;47.912;13.526;2024-01-06T10:04:45;95221.03;;;3.99;81.99
66479;BME280;53294;47.912;13.526;2024-01-06T10:07:12;95223.09;;;4.07;81.91
66479;BME280;53294;47.912;13.526;2024-01-06T10:09:41;95216.38;;;4.20;81.14
66479;BME280;53294;47.912;13.526;2024-01-06T10:12:09;95216.28;;;4.30;79.62
66479;BME280;53294;47.912;13.526;2024-01-06T10:14:37;95217.81;;;4.36;79.75
66479;BME280;53294;47.912;13.526;2024-01-06T10:17:08;95212.47;;;4.41;79.03
66479;BME280;53294;47.912;13.526;2024-01-06T10:19:35;95212.41;;;4.46;79.98
66479;BME280;53294;47.912;13.526;2024-01-06T10:22:03;95206.78;;;4.53;80.08
66479;BME280;53294;47.912;13.526;2024-01-06T10:24:30;95209.91;;;4.60;80.03
66479;BME280;53294;47.912;13.526;2024-01-06T10:26:58;95205.94;;;4.58;80.20
66479;BME280;53294;47.912;13.526;2024-01-06T10:29:25;95208.09;;;4.56;80.77
66479;BME280;53294;47.912;13.526;2024-01-06T10:31:54;95205.38;;;4.61;80.96
66479;BME280;53294;47.912;13.526;2024-01-06T10:34:22;95202.22;;;4.59;80.44
66479;BME280;53294;47.912;13.526;2024-01-06T10:36:51;95199.50;;;4.64;80.56
66479;BME280;53294;47.912;13.526;2024-01-06T10:39:21;95209.22;;;4.49;80.81
66479;BME280;53294;47.912;13.526;2024-01-06T10:41:49;95207.06;;;4.52;80.04
66479;BME280;53294;47.912;13.526;2024-01-06T10:44:16;95206.50;;;4.55;80.45
66479;BME280;53294;47.912;13.526;2024-01-06T10:46:44;95201.66;;;4.62;81.22
66479;BME280;53294;47.912;13.526;2024-01-06T10:49:10;95205.03;;;4.67;81.00
66479;BME280;53294;47.912;13.526;2024-01-06T10:51:38;95202.66;;;4.66;80.36
66479;BME280;53294;47.912;13.526;2024-01-06T10:54:05;95198.94;;;4.67;79.67
66479;BME280;53294;47.912;13.526;2024-01-06T10:56:42;95196.88;;;4.59;79.74
66479;BME280;53294;47.912;13.526;2024-01-06T10:59:11;95191.78;;;4.62;79.13
66479;BME280;53294;47.912;13.526;2024-01-06T11:01:39;95191.00;;;4.62;79.93
66479;BME280;53294;47.912;13.526;2024-01-06T11:04:06;95192.00;;;4.66;80.47
66479;BME280;53294;47.912;13.526;2024-01-06T11:06:33;95189.59;;;4.70;79.90
66479;BME280;53294;47.912;13.526;2024-01-06T11:09:22;95189.81;;;4.73;79.67
66479;BME280;53294;47.912;13.526;2024-01-06T11:11:51;95183.66;;;4.78;79.95
66479;BME280;53294;47.912;13.526;2024-01-06T11:14:21;95184.69;;;4.82;80.34
66479;BME280;53294;47.912;13.526;2024-01-06T11:16:48;95181.47;;;4.85;80.20
66479;BME280;53294;47.912;13.526;2024-01-06T11:22:24;95184.84;;;4.91;79.68
66479;BME280;53294;47.912;13.526;2024-01-06T11:24:55;95182.91;;;4.72;79.10
66479;BME280;53294;47.912;13.526;2024-01-06T11:27:26;95179.81;;;4.65;79.50
66479;BME280;53294;47.912;13.526;2024-01-06T11:30:02;95179.81;;;4.65;79.64
66479;BME280;53294;47.912;13.526;2024-01-06T11:32:34;95179.81;;;4.65;80.24
66479;BME280;53294;47.912;13.526;2024-01-06T11:37:51;95174.44;;;4.70;79.81
66479;BME280;53294;47.912;13.526;2024-01-06T11:42:56;95178.13;;;4.74;78.80
66479;BME280;53294;47.912;13.526;2024-01-06T11:45:24;95166.91;;;4.77;79.13
66479;BME280;53294;47.912;13.526;2024-01-06T11:47:55;95170.44;;;4.67;79.15
66479;BME280;53294;47.912;13.526;2024-01-06T11:50:23;95169.72;;;4.62;79.01
66479;BME280;53294;47.912;13.526;2024-01-06T11:52:50;95168.69;;;4.58;79.13
66479;BME280;53294;47.912;13.526;2024-01-06T11:55:18;95173.72;;;4.59;78.88
66479;BME280;53294;47.912;13.526;2024-01-06T11:57:45;95171.06;;;4.59;79.06
66479;BME280;53294;47.912;13.526;2024-01-06T12:00:12;95165.47;;;4.61;79.38
66479;BME280;53294;47.912;13.526;2024-01-06T12:02:42;95165.53;;;4.56;79.02
66479;BME280;53294;47.912;13.526;2024-01-06T12:05:16;95170.38;;;4.48;78.93
66479;BME280;53294;47.912;13.526;2024-01-06T12:07:53;95165.53;;;4.26;79.73
66479;BME280;53294;47.912;13.526;2024-01-06T12:10:21;95164.69;;;4.31;79.58
66479;BME280;53294;47.912;13.526;2024-01-06T12:13:01;95162.09;;;4.26;79.80
66479;BME280;53294;47.912;13.526;2024-01-06T12:15:32;95162.09;;;4.26;80.77
66479;BME280;53294;47.912;13.526;2024-01-06T12:17:59;95168.09;;;4.02;81.46
66479;BME280;53294;47.912;13.526;2024-01-06T12:20:29;95157.97;;;4.09;81.59
66479;BME280;53294;47.912;13.526;2024-01-06T12:22:56;95165.09;;;4.14;81.55
66479;BME280;53294;47.912;13.526;2024-01-06T12:25:23;95163.75;;;4.17;81.53
66479;BME280;53294;47.912;13.526;2024-01-06T12:27:52;95151.72;;;3.90;81.98
66479;BME280;53294;47.912;13.526;2024-01-06T12:30:21;95164.56;;;3.83;82.37
66479;BME280;53294;47.912;13.526;2024-01-06T12:32:50;95160.81;;;3.84;82.98
66479;BME280;53294;47.912;13.526;2024-01-06T12:35:20;95158.50;;;3.72;83.34
66479;BME280;53294;47.912;13.526;2024-01-06T12:37:47;95158.94;;;3.45;84.85
66479;BME280;53294;47.912;13.526;2024-01-06T12:40:16;95162.75;;;3.23;86.09
66479;BME280;53294;47.912;13.526;2024-01-06T12:42:44;95171.91;;;2.96;88.05
66479;BME280;53294;47.912;13.526;2024-01-06T12:45:11;95170.66;;;2.78;88.79
66479;BME280;53294;47.912;13.526;2024-01-06T12:47:40;95168.81;;;2.68;90.44
66479;BME280;53294;47.912;13.526;2024-01-06T12:50:08;95167.19;;;2.78;90.38
66479;BME280;53294;47.912;13.526;2024-01-06T12:52:35;95178.59;;;2.78;90.74
66479;BME280;53294;47.912;13.526;2024-01-06T12:55:08;95171.72;;;2.77;90.46
66479;BME280;53294;47.912;13.526;2024-01-06T12:57:35;95179.16;;;2.75;90.28
66479;BME280;53294;47.912;13.526;2024-01-06T13:00:02;95176.78;;;2.63;91.18
66479;BME280;53294;47.912;13.526;2024-01-06T13:02:29;95184.22;;;2.61;91.63
66479;BME280;53294;47.912;13.526;2024-01-06T13:04:56;95179.22;;;2.44;92.26
66479;BME280;53294;47.912;13.526;2024-01-06T13:07:23;95180.78;;;2.45;92.88
66479;BME280;53294;47.912;13.526;2024-01-06T13:09:50;95172.53;;;2.62;91.88